Main page
METAR-TAF:

METAR-TAF

Airports :

Gonabad, Iran

latitude: 34-22-51N, longitude: 58-38-23E, elevation: 1100 m

Current weather observation

The report was made 57 minutes ago, at 21:00 UTC
Wind 8 kt from the East/Southeast
Temperature 24°C
Humidity 31%
Pressure 1008 hPa

METAR: OIMD 052100Z AUTO 11008KT //// // ////// 24/06 Q1008

Time: 02:27 (21:57 UTC)


TAF: missing

Weather observations and forecasts of more than 4000 airports (METAR and TAF reports).

The available stations are represented by yellow and red dots on the map.

Hover mouse over dot to see the name of the station.

Then click to see weather observations and forecasts.

To change the map : click on the green buttons with a black cross to zoom in, on the green button with a dash to zoom out, or on the green arrows for adjacent maps.


METAR-TAF: